Palma De Mallorca, Spain

1:33 PM CEST on October 25, 2014 (GMT +0200)
Ciudad Jardin | Change Station
CLOSE
Current Station
Personal Weather Station
Location: Palma De Mallorca, ILLES BALEARS
Elevation: 20 ft
Nearby Weather Stations

Elev 20 ft 39.55 °N, 2.69 °E | Updated 4 seconds ago

Clear
Clear
74.8 °F
Feels Like 77 °F
N
6.0
Wind Variable Wind from SSW
Gusts 6.0 mph

Today
High -- | Low -- °F
--% Chance of Precip.
Yesterday
High -- | Low -- °F
Precip. -- in
8:09 AM 6:56 PM
Waxing Crescent, 3% visible
Pressure 30.12 in
Visibility -9999.0 miles
Clouds
Heat Index 77 °F
Dew Point 62 °F
Humidity 65%
Rainfall 0.00 in
Snow Depth Not available.
UV Not available.
Pollen Not available.
Air Quality Not available.
Flu Activity Not available.
METAR LEPA 251100Z 23007KT 200V260 CAVOK 27/12 Q1020 NOSIG

More Conditions Fewer Conditions

Pressure 30.12 in
Visibility -9999.0 miles
Clouds
Heat Index 77 °F
Dew Point 62 °F
Humidity 65%
Rainfall 0.00 in
Snow Depth Not available.
UV Not available.
Pollen Not available.
Air Quality Not available.
Flu Activity Not available.
METAR LEPA 251100Z 23007KT 200V260 CAVOK 27/12 Q1020 NOSIG

More Conditions Fewer Conditions

10-Day Weather Forecast

Almanac

Astronomy

Oct. 25, 2014 Rise Set
Actual Time 8:09 AM CEST 6:56 PM CEST
Civil Twilight 7:41 AM CEST 7:23 PM CEST
Nautical Twilight 7:10 AM CEST 7:55 PM CEST
Astronomical Twilight 6:39 AM CEST 8:26 PM CEST
Moon 9:32 AM CEST 8:08 PM CEST
Length of Visible Light 11h 41m
Length of Day
10h 46m
Tomorrow will be 2m 23s shorter.
Waxing Crescent, 3% of the Moon is Illuminated
Today
Waxing Crescent
Oct 30
First Quarter
Nov 6
Full
Nov 14
Last Quarter
Nov 22
New

Yesterday's Extremes

Country Highs Country Lows

Community

WunderPhotos

Upload Photos

1,764,810 photos uploaded!

Nearby

Snow Depth

Not available.

Earthquake Activity

City Distance Mag. Time & Date
No recent earthquake activity has been reported nearby.
Minimum magnitude displayed is 2.5.

Coastal Water Temperatures

Place Temperature
No Stations Reporting

Nearby Weather Stations